Time;durP1;ratioP1;P1;durP2;ratioP2;P2;SDS_P1;SDS_P2;PMS_P1;PMS_P2;Temp;Humidity;BMP_temperature;BMP_pressure;BME280_temperature;BME280_humidity;BME280_pressure;Samples;Min_cycle;Max_cycle;Signal;HPM_P1;HPM_P2
2023/04/14 00:01:04;;;;;;;9.90;3.10;;;5.00;99.90;;;;;;4937223;29;20129;-89
2023/04/14 00:03:29;;;;;;;11.63;3.53;;;4.90;99.90;;;;;;4935153;29;20028;-90
2023/04/14 00:05:55;;;;;;;11.48;3.10;;;4.80;99.90;;;;;;4929696;28;20088;-89
2023/04/14 00:08:21;;;;;;;17.58;4.95;;;4.70;99.90;;;;;;4931463;29;20036;-90
2023/04/14 00:10:46;;;;;;;15.57;4.55;;;4.60;99.90;;;;;;4923532;29;20064;-91
2023/04/14 00:13:12;;;;;;;14.38;3.60;;;4.60;99.90;;;;;;4936206;29;20067;-89
2023/04/14 00:15:40;;;;;;;10.82;4.13;;;4.50;99.90;;;;;;4935411;29;20030;-90
2023/04/14 00:18:06;;;;;;;10.48;2.83;;;4.50;99.90;;;;;;4926128;29;20058;-92
2023/04/14 00:20:32;;;;;;;10.40;2.25;;;4.50;99.90;;;;;;4934798;29;20055;-90
2023/04/14 00:23:00;;;;;;;12.32;4.13;;;4.50;99.90;;;;;;4929318;29;20027;-89
2023/04/14 00:25:26;;;;;;;9.90;2.92;;;4.60;99.90;;;;;;4934647;29;20111;-89
2023/04/14 00:27:52;;;;;;;8.10;3.08;;;4.60;99.90;;;;;;4929463;29;21151;-89
2023/04/14 00:30:19;;;;;;;8.52;2.85;;;4.50;99.90;;;;;;4926122;29;20129;-89
2023/04/14 00:32:44;;;;;;;8.38;3.03;;;4.40;99.90;;;;;;4932861;29;20031;-90
2023/04/14 00:35:10;;;;;;;10.90;2.53;;;4.30;99.90;;;;;;4931636;29;20390;-90
2023/04/14 00:37:36;;;;;;;6.90;1.80;;;4.30;99.90;;;;;;4934471;29;20456;-90
2023/04/14 00:40:01;;;;;;;8.70;2.50;;;4.20;99.90;;;;;;4931804;29;20391;-91
2023/04/14 00:42:27;;;;;;;5.82;2.22;;;4.20;99.90;;;;;;4933480;29;20034;-90
2023/04/14 00:44:53;;;;;;;7.35;2.20;;;4.20;99.90;;;;;;4932130;29;20088;-90
2023/04/14 00:47:21;;;;;;;6.90;2.20;;;4.20;99.90;;;;;;4934819;29;20042;-90
2023/04/14 00:49:47;;;;;;;4.90;2.10;;;4.20;99.90;;;;;;4931191;29;20039;-90
2023/04/14 00:52:13;;;;;;;3.17;1.48;;;4.20;99.90;;;;;;4931635;29;20044;-90
2023/04/14 00:54:39;;;;;;;9.45;1.85;;;4.20;99.90;;;;;;4935919;29;20030;-90
2023/04/14 00:57:06;;;;;;;8.90;2.45;;;4.20;99.90;;;;;;4936628;29;20485;-90
2023/04/14 00:59:32;;;;;;;10.65;2.13;;;4.20;99.90;;;;;;4937657;29;20024;-90
2023/04/14 01:01:59;;;;;;;10.63;1.98;;;4.20;99.90;;;;;;4937970;29;20027;-90
2023/04/14 01:04:26;;;;;;;4.70;1.83;;;4.10;99.90;;;;;;4936682;29;20086;-91
2023/04/14 01:06:53;;;;;;;9.38;2.20;;;4.10;99.90;;;;;;4935694;29;20079;-90
2023/04/14 01:09:18;;;;;;;8.23;2.22;;;4.00;99.90;;;;;;4937930;29;20028;-90
2023/04/14 01:11:50;;;;;;;10.60;2.75;;;4.00;99.90;;;;;;4936304;29;20038;-89
2023/04/14 01:14:34;;;;;;;7.70;2.00;;;3.90;99.90;;;;;;4937483;29;20020;-89
2023/04/14 01:17:10;;;;;;;11.48;2.10;;;3.90;99.90;;;;;;4940947;29;20058;-89
2023/04/14 01:19:46;;;;;;;5.45;1.52;;;3.90;99.90;;;;;;4937229;29;20020;-89
2023/04/14 01:22:13;;;;;;;7.68;1.70;;;3.80;99.90;;;;;;4934471;29;20493;-90
2023/04/14 01:24:42;;;;;;;7.78;1.30;;;3.80;99.90;;;;;;4937258;29;20020;-90
2023/04/14 01:28:02;;;;;;;5.78;2.50;;;3.80;99.90;;;;;;4936084;29;20032;-89
2023/04/14 01:30:55;;;;;;;8.75;1.88;;;3.80;99.90;;;;;;4889966;29;20037;-89
2023/04/14 01:33:25;;;;;;;11.55;1.45;;;3.80;99.90;;;;;;4896940;29;20036;-91
2023/04/14 01:36:13;;;;;;;6.68;1.80;;;3.70;99.90;;;;;;4898934;29;20037;-90
2023/04/14 01:39:02;;;;;;;5.82;1.70;;;3.70;99.90;;;;;;4883011;29;20037;-90
2023/04/14 01:41:28;;;;;;;5.05;1.77;;;3.60;99.90;;;;;;4881554;29;20033;-90
2023/04/14 01:43:57;;;;;;;6.07;1.35;;;3.50;99.90;;;;;;4898572;29;20076;-90
2023/04/14 01:46:22;;;;;;;6.85;1.58;;;3.50;99.90;;;;;;4898776;29;20103;-90
2023/04/14 01:48:49;;;;;;;4.97;1.75;;;3.40;99.90;;;;;;4889370;29;20176;-90
2023/04/14 01:51:18;;;;;;;3.97;1.15;;;3.30;99.90;;;;;;4898397;29;20192;-90
2023/04/14 01:53:45;;;;;;;6.13;1.67;;;3.30;99.90;;;;;;4898225;29;20104;-90
2023/04/14 01:56:13;;;;;;;4.60;1.23;;;3.40;99.90;;;;;;4898321;29;20043;-90
2023/04/14 01:58:40;;;;;;;7.15;1.92;;;3.40;99.90;;;;;;4895375;29;20068;-91
2023/04/14 02:01:07;;;;;;;3.45;1.25;;;3.40;99.90;;;;;;4916653;29;20044;-90
2023/04/14 02:03:37;;;;;;;6.65;1.65;;;3.30;99.90;;;;;;4937078;29;20119;-90
2023/04/14 02:06:05;;;;;;;11.85;2.55;;;3.30;99.90;;;;;;4933643;29;20031;-90
2023/04/14 02:08:32;;;;;;;5.18;1.52;;;3.20;99.90;;;;;;4933413;29;20066;-90
2023/04/14 02:11:00;;;;;;;4.18;1.58;;;3.20;99.90;;;;;;4934261;29;20027;-90
2023/04/14 02:13:28;;;;;;;5.80;1.52;;;3.10;99.90;;;;;;4935099;29;20028;-90
2023/04/14 02:15:58;;;;;;;6.57;1.80;;;3.00;99.90;;;;;;4936522;29;20019;-89
2023/04/14 02:18:40;;;;;;;4.30;1.58;;;3.00;99.90;;;;;;5053038;27;1346535;-91
2023/04/14 02:21:08;;;;;;;6.50;2.25;;;2.90;99.90;;;;;;5081610;28;20056;-90
2023/04/14 02:23:35;;;;;;;6.70;1.77;;;2.90;99.90;;;;;;5089731;28;20095;-90
2023/04/14 02:26:09;;;;;;;2.65;1.42;;;2.80;99.90;;;;;;5090928;28;20024;-90
2023/04/14 02:28:42;;;;;;;6.38;1.30;;;2.80;99.90;;;;;;5090196;28;20016;-91
2023/04/14 02:31:10;;;;;;;2.60;1.33;;;2.70;99.90;;;;;;5091067;28;20020;-90
2023/04/14 02:33:38;;;;;;;5.95;1.42;;;2.70;99.90;;;;;;5089630;28;20569;-90
2023/04/14 02:36:19;;;;;;;7.38;1.35;;;2.70;99.90;;;;;;5090924;28;20066;-90
2023/04/14 02:38:52;;;;;;;7.20;1.30;;;2.70;99.90;;;;;;5089544;28;20036;-91
2023/04/14 02:41:29;;;;;;;8.77;1.52;;;2.70;99.90;;;;;;5090009;28;20077;-88
2023/04/14 02:44:04;;;;;;;5.00;1.48;;;2.70;99.90;;;;;;5090534;28;20385;-90
2023/04/14 02:46:34;;;;;;;5.97;1.33;;;2.70;99.90;;;;;;5089598;28;20148;-91
2023/04/14 02:49:02;;;;;;;;;;;2.70;99.90;;;;;;5088496;28;20020;-90
2023/04/14 02:51:30;;;;;;;7.32;1.30;;;2.70;99.90;;;;;;5091553;28;19908;-89
2023/04/14 02:53:56;;;;;;;9.00;1.40;;;2.70;99.90;;;;;;5089776;28;20484;-89
2023/04/14 02:56:23;;;;;;;7.25;1.50;;;2.70;99.90;;;;;;5088980;28;20023;-90
2023/04/14 02:58:49;;;;;;;4.18;1.63;;;2.80;99.90;;;;;;5086693;28;20047;-90
2023/04/14 03:01:16;;;;;;;5.30;1.02;;;2.70;99.90;;;;;;5078205;28;20601;-90
2023/04/14 03:03:42;;;;;;;4.28;1.08;;;2.70;99.90;;;;;;5079477;28;20024;-90
2023/04/14 03:06:10;;;;;;;2.42;0.90;;;2.70;99.90;;;;;;5079266;28;20108;-90
2023/04/14 03:08:37;;;;;;;6.85;1.50;;;2.60;99.90;;;;;;5079314;28;20092;-90
2023/04/14 03:11:04;;;;;;;5.43;1.55;;;2.60;99.90;;;;;;5082389;28;20063;-90
2023/04/14 03:13:34;;;;;;;3.28;1.30;;;2.50;99.90;;;;;;5078257;28;20032;-91
2023/04/14 03:16:02;;;;;;;9.17;2.47;;;2.40;99.90;;;;;;5080817;28;20024;-90
2023/04/14 03:18:30;;;;;;;8.95;1.73;;;2.40;99.90;;;;;;5097482;28;20124;-90
2023/04/14 03:20:59;;;;;;;7.93;1.45;;;2.40;99.90;;;;;;5080925;28;20077;-90
2023/04/14 03:23:26;;;;;;;4.65;1.10;;;2.40;99.90;;;;;;5100244;28;20084;-90
2023/04/14 03:25:52;;;;;;;4.07;1.27;;;2.50;99.90;;;;;;5082961;28;20021;-90
2023/04/14 03:28:21;;;;;;;4.30;1.40;;;2.50;99.90;;;;;;5076720;28;20020;-90
2023/04/14 03:30:51;;;;;;;2.63;1.30;;;2.40;99.90;;;;;;5086488;28;20027;-90
2023/04/14 03:33:22;;;;;;;5.32;1.45;;;2.30;99.90;;;;;;5073684;28;20044;-90
2023/04/14 03:35:49;;;;;;;5.15;2.30;;;2.20;99.90;;;;;;5067844;28;20568;-90
2023/04/14 03:38:15;;;;;;;9.80;2.72;;;2.20;99.90;;;;;;5084970;28;20040;-91
2023/04/14 03:40:45;;;;;;;5.20;1.85;;;2.20;99.90;;;;;;5069473;28;20017;-91
2023/04/14 03:43:18;;;;;;;5.13;1.67;;;2.10;99.90;;;;;;5066191;28;20040;-90
2023/04/14 03:45:48;;;;;;;4.10;1.00;;;2.10;99.90;;;;;;5087580;28;20104;-91
2023/04/14 03:48:17;;;;;;;3.90;2.47;;;2.10;99.90;;;;;;5067071;28;21394;-90
2023/04/14 03:50:45;;;;;;;3.85;1.20;;;2.10;99.90;;;;;;5070689;28;20027;-91
2023/04/14 03:53:13;;;;;;;3.30;1.20;;;2.00;99.90;;;;;;5069929;28;20032;-91
2023/04/14 03:55:42;;;;;;;5.47;1.10;;;2.00;99.90;;;;;;5085216;28;20021;-91
2023/04/14 03:58:10;;;;;;;7.85;1.30;;;2.00;99.90;;;;;;5087912;28;20048;-91
2023/04/14 04:00:37;;;;;;;8.77;2.30;;;2.10;99.90;;;;;;5070057;28;20025;-91
2023/04/14 04:03:04;;;;;;;6.18;1.70;;;2.10;99.90;;;;;;5064054;28;20104;-92
2023/04/14 04:05:32;;;;;;;9.63;1.80;;;2.10;99.90;;;;;;5086189;28;20126;-90
2023/04/14 04:08:03;;;;;;;4.55;1.60;;;2.10;99.90;;;;;;5089006;28;20017;-90
2023/04/14 04:10:33;;;;;;;6.90;1.92;;;2.00;99.90;;;;;;5088124;28;20024;-91
2023/04/14 04:13:05;;;;;;;13.55;1.80;;;1.90;99.90;;;;;;5073447;28;20029;-91
2023/04/14 04:15:31;;;;;;;6.65;1.65;;;1.90;99.90;;;;;;5082942;28;20111;-91
2023/04/14 04:17:58;;;;;;;5.93;1.70;;;1.80;99.90;;;;;;5081682;28;20497;-90
2023/04/14 04:20:25;;;;;;;4.78;1.67;;;1.90;99.90;;;;;;5105636;28;20024;-89
2023/04/14 04:22:53;;;;;;;3.67;1.25;;;1.90;99.90;;;;;;5084161;28;20024;-91
2023/04/14 04:25:19;;;;;;;10.27;1.45;;;1.90;99.90;;;;;;5075154;28;20028;-90
2023/04/14 04:27:45;;;;;;;6.07;1.40;;;1.90;99.90;;;;;;5075625;28;20362;-91
2023/04/14 04:30:13;;;;;;;2.60;1.27;;;1.80;99.90;;;;;;5086493;28;20107;-91
2023/04/14 04:32:39;;;;;;;5.68;1.58;;;1.80;99.90;;;;;;5067642;28;20020;-90
2023/04/14 04:35:06;;;;;;;6.20;1.25;;;1.90;99.90;;;;;;5069736;28;20098;-91
2023/04/14 04:37:33;;;;;;;4.20;1.30;;;1.90;99.90;;;;;;5068761;28;20025;-91
2023/04/14 04:39:59;;;;;;;6.22;1.83;;;1.80;99.90;;;;;;5083567;28;20028;-90
2023/04/14 04:42:25;;;;;;;7.80;1.85;;;1.80;99.90;;;;;;5067093;28;20477;-90
2023/04/14 04:44:51;;;;;;;5.60;1.90;;;1.80;99.90;;;;;;5067615;28;20022;-89
2023/04/14 04:47:17;;;;;;;3.60;1.77;;;1.70;99.90;;;;;;5066040;28;20027;-91
2023/04/14 04:49:42;;;;;;;7.28;1.80;;;1.60;99.90;;;;;;5061839;28;20115;-90
2023/04/14 04:52:08;;;;;;;8.10;2.38;;;1.50;99.90;;;;;;5100790;28;20048;-90
2023/04/14 04:54:34;;;;;;;8.23;1.98;;;1.50;99.90;;;;;;5085200;28;20050;-91
2023/04/14 04:57:00;;;;;;;8.13;2.03;;;1.40;99.90;;;;;;5088190;28;20054;-90
2023/04/14 04:59:25;;;;;;;3.95;1.63;;;1.40;99.90;;;;;;5087908;28;20040;-90
2023/04/14 05:01:51;;;;;;;5.80;1.63;;;1.30;99.90;;;;;;5087475;28;20016;-90
2023/04/14 05:04:17;;;;;;;11.88;1.70;;;1.30;99.90;;;;;;5089672;28;20062;-90
2023/04/14 05:06:42;;;;;;;3.10;1.40;;;1.30;99.90;;;;;;5088987;28;20012;-90
2023/04/14 05:09:08;;;;;;;3.58;2.10;;;1.30;99.90;;;;;;5073361;28;20036;-89
2023/04/14 05:11:34;;;;;;;11.43;2.28;;;1.20;99.90;;;;;;5069543;28;20032;-90
2023/04/14 05:14:01;;;;;;;3.08;1.65;;;1.20;99.90;;;;;;5070809;28;20024;-89
2023/04/14 05:16:27;;;;;;;6.80;1.55;;;1.20;99.90;;;;;;5068074;28;20036;-91
2023/04/14 05:18:53;;;;;;;6.00;1.63;;;1.20;99.90;;;;;;5070264;28;20374;-91
2023/04/14 05:21:19;;;;;;;9.20;2.10;;;1.20;99.90;;;;;;5074233;28;20028;-90
2023/04/14 05:23:46;;;;;;;6.57;1.83;;;1.10;99.90;;;;;;5087605;28;20048;-89
2023/04/14 05:26:13;;;;;;;6.88;1.90;;;1.10;99.90;;;;;;5085644;28;20020;-89
2023/04/14 05:28:39;;;;;;;3.88;1.73;;;1.00;99.90;;;;;;5066161;28;20413;-89
2023/04/14 05:31:06;;;;;;;4.15;1.83;;;1.10;99.90;;;;;;5087396;28;20020;-88
2023/04/14 05:33:33;;;;;;;4.10;2.25;;;1.10;99.90;;;;;;5065153;28;20108;-89
2023/04/14 05:35:59;;;;;;;6.90;1.88;;;1.10;99.90;;;;;;5065328;28;20374;-89
2023/04/14 05:38:25;;;;;;;4.88;2.20;;;1.10;99.90;;;;;;5064862;28;20044;-88
2023/04/14 05:40:51;;;;;;;10.43;1.90;;;1.10;99.90;;;;;;5064090;28;20019;-89
2023/04/14 05:43:17;;;;;;;6.38;2.00;;;1.10;99.90;;;;;;5066056;28;20103;-91
2023/04/14 05:45:45;;;;;;;5.38;2.15;;;1.10;99.90;;;;;;5070106;28;20489;-89
2023/04/14 05:48:11;;;;;;;10.20;2.85;;;1.20;99.90;;;;;;5087317;28;20028;-90
2023/04/14 05:50:37;;;;;;;5.25;2.65;;;1.20;99.90;;;;;;5065735;28;20020;-89
2023/04/14 05:53:03;;;;;;;8.98;2.72;;;1.20;99.90;;;;;;5063518;28;20072;-91
2023/04/14 05:55:29;;;;;;;7.03;2.47;;;1.20;99.90;;;;;;5068060;28;20058;-90
2023/04/14 05:57:55;;;;;;;3.78;2.00;;;1.20;99.90;;;;;;5086157;28;20046;-91
2023/04/14 06:00:22;;;;;;;8.23;2.42;;;1.20;99.90;;;;;;5065817;28;20021;-90
2023/04/14 06:02:48;;;;;;;8.82;3.78;;;1.20;99.90;;;;;;5068900;28;20039;-90
2023/04/14 06:05:13;;;;;;;6.93;2.28;;;1.20;99.90;;;;;;5081550;28;20032;-90
2023/04/14 06:07:42;;;;;;;6.45;2.42;;;1.20;99.90;;;;;;5085460;28;20096;-90
2023/04/14 06:10:09;;;;;;;10.70;2.67;;;1.20;99.90;;;;;;5085433;28;20031;-90
2023/04/14 06:12:36;;;;;;;9.80;2.65;;;1.20;99.90;;;;;;5067575;28;20035;-90
2023/04/14 06:15:02;;;;;;;8.10;3.20;;;1.30;99.90;;;;;;5067884;28;20024;-90
2023/04/14 06:17:29;;;;;;;8.13;2.63;;;1.30;99.90;;;;;;5062551;28;20040;-89
2023/04/14 06:19:56;;;;;;;7.88;3.17;;;1.30;99.90;;;;;;5065130;28;20036;-91
2023/04/14 06:22:21;;;;;;;7.88;3.20;;;1.40;99.90;;;;;;5063150;28;20028;-90
2023/04/14 06:24:47;;;;;;;9.07;2.97;;;1.40;99.90;;;;;;5061074;28;20029;-90
2023/04/14 06:27:13;;;;;;;10.95;3.13;;;1.50;99.90;;;;;;5064421;28;20028;-90
2023/04/14 06:29:39;;;;;;;8.85;2.97;;;1.50;99.90;;;;;;5066045;28;20028;-89
2023/04/14 06:32:05;;;;;;;12.93;3.15;;;1.60;99.90;;;;;;5064801;28;20182;-89
2023/04/14 06:34:31;;;;;;;7.22;3.55;;;1.60;99.90;;;;;;5066133;28;20025;-89
2023/04/14 06:36:57;;;;;;;12.50;3.70;;;1.70;99.90;;;;;;5064596;28;20510;-89
2023/04/14 06:39:24;;;;;;;8.90;2.97;;;1.70;99.90;;;;;;5064526;28;20017;-89
2023/04/14 06:41:50;;;;;;;6.60;3.90;;;1.70;99.90;;;;;;5064957;28;20299;-89
2023/04/14 06:44:15;;;;;;;8.88;3.45;;;1.80;99.90;;;;;;5059038;28;20107;-89
2023/04/14 06:46:41;;;;;;;12.93;4.07;;;1.80;99.90;;;;;;5057464;28;20477;-89
2023/04/14 06:49:07;;;;;;;10.18;4.53;;;1.80;99.90;;;;;;5064077;28;20028;-89
2023/04/14 06:51:33;;;;;;;9.15;4.30;;;1.80;99.90;;;;;;5065515;28;20017;-89
2023/04/14 06:53:58;;;;;;;9.13;3.58;;;1.90;99.90;;;;;;5063279;28;20060;-89
2023/04/14 06:56:26;;;;;;;15.45;5.43;;;1.90;99.90;;;;;;5065056;28;20029;-88
2023/04/14 06:58:52;;;;;;;14.73;5.88;;;1.90;99.90;;;;;;5060322;28;20543;-88
2023/04/14 07:01:18;;;;;;;13.25;6.18;;;2.00;99.90;;;;;;5061486;28;20025;-88
2023/04/14 07:03:43;;;;;;;14.13;6.30;;;2.00;99.90;;;;;;5063523;28;20108;-89
2023/04/14 07:06:10;;;;;;;10.80;4.78;;;2.10;99.90;;;;;;5059788;28;20029;-89
2023/04/14 07:08:37;;;;;;;15.38;5.00;;;2.20;99.90;;;;;;5067993;28;20020;-88
2023/04/14 07:11:07;;;;;;;11.05;4.10;;;2.30;99.90;;;;;;5068172;28;20101;-89
2023/04/14 07:13:34;;;;;;;12.38;3.97;;;2.50;99.90;;;;;;5066442;28;20178;-88
2023/04/14 07:16:01;;;;;;;12.25;4.35;;;2.60;99.90;;;;;;5070132;28;20031;-88
2023/04/14 07:18:27;;;;;;;12.70;3.95;;;2.70;99.90;;;;;;5062093;28;20498;-88
2023/04/14 07:20:54;;;;;;;13.02;4.78;;;2.80;99.90;;;;;;5066772;28;20607;-88
2023/04/14 07:23:20;;;;;;;7.65;3.55;;;2.90;99.90;;;;;;5067938;28;20020;-87
2023/04/14 07:25:53;;;;;;;11.23;3.80;;;2.90;99.90;;;;;;5068216;28;20017;-89
2023/04/14 07:28:20;;;;;;;5.40;3.30;;;3.00;99.90;;;;;;5067200;28;20032;-89
2023/04/14 07:30:47;;;;;;;7.85;3.60;;;3.10;99.90;;;;;;5064862;28;20111;-89
2023/04/14 07:33:13;;;;;;;9.50;3.50;;;3.10;99.90;;;;;;5062027;28;20096;-87
2023/04/14 07:35:40;;;;;;;6.35;3.50;;;3.20;99.90;;;;;;5063199;28;20028;-89
2023/04/14 07:38:06;;;;;;;8.68;3.97;;;3.30;99.90;;;;;;5062323;28;20029;-89
2023/04/14 07:40:32;;;;;;;10.63;3.47;;;3.30;99.90;;;;;;5065081;28;20025;-87
2023/04/14 07:42:58;;;;;;;11.45;3.55;;;3.40;99.90;;;;;;5063720;28;20563;-90
2023/04/14 07:45:23;;;;;;;9.65;3.33;;;3.50;99.90;;;;;;5060933;28;20064;-88
2023/04/14 07:47:51;;;;;;;12.13;3.40;;;3.60;99.90;;;;;;5065562;28;20291;-87
2023/04/14 07:50:17;;;;;;;8.02;2.90;;;3.60;99.90;;;;;;5062002;28;20477;-88
2023/04/14 07:52:43;;;;;;;7.75;2.92;;;3.70;99.90;;;;;;5063850;28;20111;-87
2023/04/14 07:55:08;;;;;;;8.32;3.50;;;3.80;99.90;;;;;;5063819;28;20422;-87
2023/04/14 07:57:34;;;;;;;7.82;3.50;;;4.00;99.90;;;;;;5064066;28;20124;-87
2023/04/14 08:00:00;;;;;;;10.20;3.47;;;4.10;99.90;;;;;;5065612;28;20012;-86
2023/04/14 08:02:26;;;;;;;12.85;3.70;;;4.20;99.90;;;;;;5061135;28;20037;-87
2023/04/14 08:04:52;;;;;;;13.45;4.13;;;4.30;99.90;;;;;;5061877;28;20029;-87
2023/04/14 08:07:18;;;;;;;9.73;3.53;;;4.40;99.90;;;;;;5062308;28;20024;-87
2023/04/14 08:09:44;;;;;;;11.82;3.78;;;4.50;99.90;;;;;;5060778;28;20025;-87
2023/04/14 08:12:10;;;;;;;6.38;3.40;;;4.60;99.90;;;;;;5061881;28;20057;-87
2023/04/14 08:14:35;;;;;;;11.18;4.10;;;4.70;99.90;;;;;;5066307;28;20516;-89
2023/04/14 08:17:01;;;;;;;12.77;3.38;;;4.80;99.90;;;;;;5058486;28;20037;-88
2023/04/14 08:19:27;;;;;;;9.80;2.80;;;4.90;99.90;;;;;;5058287;28;20144;-87
2023/04/14 08:21:53;;;;;;;10.10;3.80;;;5.00;99.90;;;;;;5064525;28;20025;-86
2023/04/14 08:24:19;;;;;;;8.32;3.65;;;5.10;99.90;;;;;;5068928;28;20478;-86
2023/04/14 08:26:45;;;;;;;8.23;2.08;;;5.20;99.90;;;;;;5076973;28;20082;-87
2023/04/14 08:29:12;;;;;;;8.13;2.47;;;5.30;99.90;;;;;;5058506;28;20017;-87
2023/04/14 08:31:37;;;;;;;10.32;2.60;;;5.40;99.90;;;;;;5061221;28;20078;-87
2023/04/14 08:34:03;;;;;;;13.25;3.10;;;5.50;99.90;;;;;;5063291;28;20021;-87
2023/04/14 08:36:30;;;;;;;5.28;2.20;;;5.60;99.90;;;;;;5063420;28;20482;-87
2023/04/14 08:39:00;;;;;;;5.68;2.28;;;5.60;99.90;;;;;;5064312;28;20039;-87
2023/04/14 08:41:27;;;;;;;;;;;5.80;99.90;;;;;;5063473;28;20024;-87
2023/04/14 08:43:52;;;;;;;6.07;2.22;;;5.90;99.90;;;;;;5063782;28;19954;-87
2023/04/14 08:46:19;;;;;;;7.35;2.05;;;5.90;99.90;;;;;;5080331;28;20099;-88
2023/04/14 08:48:48;;;;;;;8.75;2.33;;;6.00;99.90;;;;;;5047808;28;20481;-88
2023/04/14 08:51:32;;;;;;;3.95;1.65;;;6.20;99.90;;;;;;5064745;28;20021;-87
2023/04/14 08:54:00;;;;;;;8.95;2.83;;;6.20;99.90;;;;;;5063967;28;20036;-88
2023/04/14 08:56:30;;;;;;;3.90;1.40;;;6.30;99.90;;;;;;5064906;28;20643;-87
2023/04/14 08:58:56;;;;;;;5.50;1.42;;;6.40;99.90;;;;;;5056980;28;20033;-88
2023/04/14 09:01:26;;;;;;;9.20;1.52;;;6.40;99.90;;;;;;5055015;28;20025;-88
2023/04/14 09:03:53;;;;;;;2.17;1.15;;;6.50;99.90;;;;;;5059854;28;20485;-89
2023/04/14 09:06:21;;;;;;;2.53;1.27;;;6.60;99.90;;;;;;5066530;28;20028;-88
2023/04/14 09:08:47;;;;;;;2.50;1.30;;;6.60;99.90;;;;;;5061483;28;20477;-88
2023/04/14 09:11:14;;;;;;;3.05;1.40;;;6.50;99.90;;;;;;5058301;28;20043;-88
2023/04/14 09:13:41;;;;;;;5.63;1.60;;;6.60;99.90;;;;;;5059137;28;20035;-88
2023/04/14 09:16:08;;;;;;;3.45;1.08;;;6.60;99.90;;;;;;5064451;28;20036;-85
2023/04/14 09:18:33;;;;;;;3.65;1.50;;;6.60;99.90;;;;;;5078045;28;20093;-88
2023/04/14 09:21:00;;;;;;;7.38;1.17;;;6.60;99.90;;;;;;5076404;28;20056;-88
2023/04/14 09:23:26;;;;;;;4.20;1.30;;;6.60;99.90;;;;;;5086326;28;20027;-89
2023/04/14 09:25:54;;;;;;;9.23;1.40;;;6.60;99.90;;;;;;5085922;28;20122;-87
2023/04/14 09:28:20;;;;;;;4.05;1.45;;;6.70;99.90;;;;;;5062340;28;20513;-88
2023/04/14 09:30:46;;;;;;;3.22;1.42;;;6.70;99.90;;;;;;5080262;28;20028;-88
2023/04/14 09:33:20;;;;;;;8.27;1.50;;;6.70;99.90;;;;;;5084058;28;20024;-88
2023/04/14 09:35:53;;;;;;;3.75;1.00;;;6.70;99.90;;;;;;5065842;28;20020;-88
2023/04/14 09:38:34;;;;;;;7.50;1.48;;;6.80;99.90;;;;;;5058317;28;20044;-89
2023/04/14 09:41:02;;;;;;;;;;;6.80;99.90;;;;;;5074465;28;20028;-90
2023/04/14 09:43:29;;;;;;;2.53;0.98;;;6.80;99.90;;;;;;5066048;28;19914;-89
2023/04/14 09:46:02;;;;;;;8.15;1.20;;;6.90;99.90;;;;;;5055487;28;20136;-89
2023/04/14 09:48:28;;;;;;;4.05;1.42;;;7.10;99.90;;;;;;5056342;28;20488;-90
2023/04/14 09:51:09;;;;;;;3.92;1.20;;;7.20;99.90;;;;;;5070122;28;20024;-91
2023/04/14 09:53:37;;;;;;;2.25;0.80;;;7.20;99.90;;;;;;5083586;28;20046;-90
2023/04/14 09:56:06;;;;;;;3.25;0.93;;;7.30;99.90;;;;;;5064318;28;20119;-90
2023/04/14 09:58:44;;;;;;;4.07;1.00;;;7.30;99.90;;;;;;5087347;28;20040;-88
2023/04/14 10:01:11;;;;;;;3.83;0.95;;;7.40;99.90;;;;;;5058252;28;20033;-90
2023/04/14 10:03:42;;;;;;;4.85;1.15;;;7.40;99.90;;;;;;5093666;28;20020;-88
2023/04/14 10:06:14;;;;;;;3.30;0.95;;;7.40;99.90;;;;;;5061527;28;20020;-88
2023/04/14 10:08:42;;;;;;;5.82;1.58;;;7.40;99.90;;;;;;5093503;28;20028;-88
2023/04/14 10:11:24;;;;;;;6.43;1.90;;;7.50;99.90;;;;;;5066168;28;20119;-88
2023/04/14 10:13:52;;;;;;;1.38;0.90;;;7.50;99.90;;;;;;5063992;28;20038;-88
2023/04/14 10:16:18;;;;;;;5.63;1.15;;;7.60;99.90;;;;;;5066536;28;20020;-87
2023/04/14 10:18:45;;;;;;;7.28;1.67;;;7.60;99.90;;;;;;5063673;28;20075;-87
2023/04/14 10:21:14;;;;;;;2.60;1.15;;;7.60;99.90;;;;;;5066315;28;20192;-87
2023/04/14 10:23:41;;;;;;;10.35;1.30;;;7.70;99.90;;;;;;5088982;28;20028;-86
2023/04/14 10:26:08;;;;;;;3.10;1.27;;;7.70;99.90;;;;;;5086207;28;20013;-88
2023/04/14 10:28:42;;;;;;;5.65;1.20;;;7.80;99.90;;;;;;5063697;28;20469;-88
2023/04/14 10:31:30;;;;;;;3.25;1.30;;;7.80;99.90;;;;;;5061654;28;20023;-86
2023/04/14 10:33:57;;;;;;;5.72;1.30;;;7.80;99.90;;;;;;5081701;28;20064;-90
2023/04/14 10:36:27;;;;;;;6.45;1.48;;;7.90;99.90;;;;;;5080860;28;20032;-87
2023/04/14 10:39:01;;;;;;;5.82;1.80;;;7.90;99.90;;;;;;5065360;28;20020;-89
2023/04/14 10:41:44;;;;;;;6.68;2.28;;;8.00;99.90;;;;;;5067666;28;20044;-87
2023/04/14 10:44:23;;;;;;;4.32;2.13;;;8.00;99.90;;;;;;5067180;28;20035;-87
2023/04/14 10:46:50;;;;;;;6.20;1.90;;;8.00;99.90;;;;;;5083841;28;20055;-87
2023/04/14 10:49:16;;;;;;;6.35;2.70;;;8.10;99.90;;;;;;5066134;28;20028;-87
2023/04/14 10:51:43;;;;;;;6.97;2.03;;;8.10;99.90;;;;;;5083104;28;20027;-87
2023/04/14 10:54:18;;;;;;;7.47;2.28;;;8.20;99.90;;;;;;5064831;28;20027;-88
2023/04/14 10:57:07;;;;;;;4.65;1.33;;;8.20;99.90;;;;;;5083856;28;20017;-87
2023/04/14 10:59:33;;;;;;;4.80;1.10;;;8.20;99.90;;;;;;5051825;28;20428;-89
2023/04/14 11:01:59;;;;;;;4.20;0.90;;;8.10;99.90;;;;;;5083910;28;20077;-87
2023/04/14 11:04:25;;;;;;;2.00;0.80;;;8.10;99.90;;;;;;5067098;28;20466;-87
2023/04/14 11:06:53;;;;;;;7.63;1.30;;;8.10;99.90;;;;;;5083335;28;20030;-87
2023/04/14 11:09:26;;;;;;;5.10;1.10;;;8.00;99.90;;;;;;5066975;28;20035;-87
2023/04/14 11:11:55;;;;;;;5.03;1.35;;;8.10;99.90;;;;;;5084027;28;20046;-87
2023/04/14 11:14:30;;;;;;;7.85;0.95;;;8.00;99.90;;;;;;5064908;28;20024;-86
2023/04/14 11:17:03;;;;;;;3.80;0.85;;;8.00;99.90;;;;;;5065269;28;20044;-87
2023/04/14 11:19:29;;;;;;;7.53;0.73;;;8.00;99.90;;;;;;5068372;28;20032;-88
2023/04/14 11:21:56;;;;;;;4.60;1.67;;;8.00;99.90;;;;;;5088044;28;20016;-88
2023/04/14 11:24:25;;;;;;;4.95;1.00;;;8.00;99.90;;;;;;5069086;28;20021;-88
2023/04/14 11:26:55;;;;;;;2.88;0.57;;;8.00;99.90;;;;;;5073224;28;20115;-89
2023/04/14 11:29:21;;;;;;;5.13;1.00;;;8.00;99.90;;;;;;5084472;28;20066;-89
2023/04/14 11:32:04;;;;;;;7.80;1.10;;;8.00;99.90;;;;;;5089443;28;20032;-90
2023/04/14 11:34:30;;;;;;;4.80;1.10;;;8.00;99.90;;;;;;5061128;28;20029;-88
2023/04/14 11:36:56;;;;;;;3.35;0.98;;;8.00;99.90;;;;;;5089341;28;20028;-89
2023/04/14 11:39:22;;;;;;;5.35;0.73;;;8.10;99.90;;;;;;5058758;28;20028;-89
2023/04/14 11:41:50;;;;;;;3.47;0.82;;;8.10;99.90;;;;;;5072826;28;20027;-88
2023/04/14 11:44:19;;;;;;;5.97;0.90;;;8.20;99.90;;;;;;5058540;28;20466;-89
2023/04/14 11:46:45;;;;;;;3.30;0.85;;;8.40;99.90;;;;;;5060269;28;20025;-88
2023/04/14 11:49:11;;;;;;;6.18;1.10;;;8.40;99.90;;;;;;5058556;28;20065;-88
2023/04/14 11:51:37;;;;;;;2.88;0.85;;;8.50;99.90;;;;;;5076240;28;20054;-89
2023/04/14 11:54:04;;;;;;;5.32;1.02;;;8.60;99.90;;;;;;5077491;28;20025;-89
2023/04/14 11:56:30;;;;;;;5.75;1.48;;;8.60;99.90;;;;;;5079432;28;20023;-90
2023/04/14 11:59:14;;;;;;;3.35;1.02;;;8.60;99.90;;;;;;5076617;28;20121;-90
2023/04/14 12:01:49;;;;;;;4.60;1.63;;;8.60;99.90;;;;;;5079166;28;20032;-90
2023/04/14 12:04:16;;;;;;;2.85;0.80;;;8.60;99.90;;;;;;5080984;28;20043;-90
2023/04/14 12:06:42;;;;;;;4.18;1.15;;;8.50;99.90;;;;;;5073850;28;20025;-91
2023/04/14 12:09:08;;;;;;;2.53;0.85;;;8.60;99.90;;;;;;5065872;28;20031;-90
2023/04/14 12:11:34;;;;;;;4.43;0.75;;;8.50;99.90;;;;;;5062799;28;20036;-91
2023/04/14 12:14:00;;;;;;;6.28;1.10;;;8.50;99.90;;;;;;5066720;28;20032;-92
2023/04/14 12:16:26;;;;;;;5.03;1.90;;;8.50;99.90;;;;;;5071884;28;20067;-89
2023/04/14 12:18:52;;;;;;;9.00;1.75;;;8.50;99.90;;;;;;5063638;28;20064;-90
2023/04/14 12:21:18;;;;;;;3.63;0.60;;;8.50;99.90;;;;;;5063016;28;20025;-90
2023/04/14 12:23:48;;;;;;;2.90;1.00;;;8.50;99.90;;;;;;5058736;28;20029;-90
2023/04/14 12:26:14;;;;;;;4.67;0.77;;;8.50;99.90;;;;;;5057557;28;20059;-88
2023/04/14 12:28:40;;;;;;;5.55;1.00;;;8.50;99.90;;;;;;5058480;28;20132;-89
2023/04/14 12:31:07;;;;;;;1.95;0.60;;;8.50;99.90;;;;;;5069674;28;20489;-88
2023/04/14 12:33:33;;;;;;;2.20;0.80;;;8.50;99.90;;;;;;5077357;28;20031;-89
2023/04/14 12:36:04;;;;;;;6.32;0.85;;;8.50;99.90;;;;;;5079509;28;20020;-87
2023/04/14 12:38:31;;;;;;;2.90;1.02;;;8.40;99.90;;;;;;5062730;28;20496;-89
2023/04/14 12:40:57;;;;;;;2.58;0.85;;;8.40;99.90;;;;;;5078667;28;20486;-89
2023/04/14 12:43:30;;;;;;;5.65;1.10;;;8.40;99.90;;;;;;5079492;28;20028;-89
2023/04/14 12:45:57;;;;;;;3.17;0.60;;;8.50;99.90;;;;;;5068011;28;20024;-89
2023/04/14 12:48:44;;;;;;;1.80;0.73;;;8.50;99.90;;;;;;5057823;28;20134;-91
2023/04/14 12:51:17;;;;;;;5.43;0.90;;;8.50;99.90;;;;;;5069642;28;20028;-91
2023/04/14 12:53:45;;;;;;;1.13;0.70;;;8.50;99.90;;;;;;5077237;28;20149;-92
2023/04/14 12:56:23;;;;;;;2.70;0.60;;;8.50;99.90;;;;;;5095369;28;20046;-90
2023/04/14 12:58:50;;;;;;;2.78;1.35;;;8.50;99.90;;;;;;5077080;28;20126;-90
2023/04/14 13:01:19;;;;;;;3.15;0.80;;;8.50;99.90;;;;;;5080527;28;20028;-91